Share

Crockett, KY (41413)

Green (KKYOLIVE2) Elev 883 ft | 38.19 °N, 83.08 °W | Change Station
Active Advisory: Special Statement

Current weather conditions updated 2 minutes ago

Clear
Clear
44.8 °F
Feels Like 45 °F
N
0.0
Wind Variable Wind from North
Gusts 0.0 mph
Sunrise 6:50 AM
Sunset 8:12 PM
Moon Waning Gibbous

Today is forecast to be nearly the same temperature as yesterday.

Pressure 30.22 in
Visibility 10.0 miles
Clouds Clear
Windchill 45 °F
Dew Point 14 °F
Humidity 28%
Rainfall -999.00 in
Snow Depth Not available.
UV 0 out of 16
Pollen 10.00 out of 12
Air Quality Not available.
Flu Activity Sporadic
METAR KSJS 200855Z AUTO 07003KT 10SM CLR 11/02 A3022 RMK AO2 T01070018 PWINO

More Conditions Fewer Conditions

Pressure 30.22 in
Visibility 10.0 miles
Clouds Clear
Windchill 45 °F
Dew Point 14 °F
Humidity 28%
Rainfall -999.00 in
Snow Depth Not available.
UV 0 out of 16
Pollen 10.00 out of 12
Air Quality Not available.
Flu Activity Sporadic
METAR KSJS 200855Z AUTO 07003KT 10SM CLR 11/02 A3022 RMK AO2 T01070018 PWINO

More Conditions Fewer Conditions

10-Day Weather Forecast

Almanac

Astronomy

Apr. 20, 2014 Rise Set
Actual Time 6:50 AM EDT 8:12 PM EDT
Civil Twilight 6:22 AM EDT 8:40 PM EDT
Nautical Twilight 5:49 AM EDT 9:13 PM EDT
Astronomical Twilight 5:15 AM EDT 9:48 PM EDT
Moon 12:49 AM EDT 11:11 AM EDT
Length of Visible Light 14h 17m
Length of Day
13h 22m
Tomorrow will be 2m 16s longer.
Waning Gibbous, 72% of the Moon is Illuminated
Today
Waning Gibbous
Apr 22
Last Quarter
Apr 29
New
May 6
First Quarter
May 14
Full

Today's Extremes

State Highs State Lows

Community

  • Sunny day at the coast-Cape Arago Lighthouse
    Sunny day at the coast-Cape Arago Lighthouse
  • Cherry Blossoms
    Cherry Blossoms
  • White-Crowned Sparrow
    White-Crowned Sparrow
  • New Day
    New Day
  • Happy Easter!
    Happy Easter!

WunderPhotos

Upload Photos

1,703,121 photos uploaded!

WunderBlogs® & News

Nearby

Snow Depth

Station Depth Elevation
No new snow has been reported.

Coastal Water Temperatures

Place Temperature
No Stations Reporting

Earthquake Activity

City Distance Mag. Time & Date
No recent earthquake activity has been reported nearby.
Minimum magnitude displayed is 2.5.

Nearby Weather Stations

Station Location Temp. Windchill Dew Point Humidity Wind Precip. Elev Updated Type
Green, Olive Hill, KY 44.8 °F 45 °F 14 °F 28% North  at  0.0 mph 0.00 in / hr 883 ft 5:07 AM EDT Normal
Paintsville, KY, Paintsville, KY 44.9 °F 45 °F 40 °F 83% NW  at  2.0 mph 0.00 in / hr 620 ft 4:56 AM EDT Normal
West Van Lear, West Van Lear, KY 40.1 °F 40 °F 37 °F 90% West  at  0.0 mph - / hr 610 ft 5:09 AM EDT Normal
RAWS TRIANGLE MTN KY, Morehead, KY 52 °F - 29 °F 41% ENE  at  5 mph 0.00 in / hr 1359 ft 4:02 AM EDT MADIS

Show More Stations Show Fewer Stations

What do you think?

We're not finished. Please let us know what you like, what you don't like, and what you are still missing.